Menno, South Dakota
Current Conditions -  °F | °C
As of 2:15 PM on Thursday 29 Jan 2015 (Local Time) from KYKN Reporting Station
Overcast Overcast  
Wind Chill: -5°   Ceiling: 2600
Heat Index:   Visibility: 10mi
Dew Point: -6°   Wind: 20mph
Humidity: 60%   Direction: 330°NNW
Pressure: 30.46"   Gusts: 25mph
Location:  43.24°N, 97.58°W
Report Text: KYKN 292015Z AUTO 33017G22KT 10SM OVC026 01/M06 A3046 RMK AO1
Loading
Personal Weather Stations






























Interactive Weather Map New forecast layout! Learn more

10-Day Weather Forecast

Advertisements
Track Severe Weather on mobile